createdAt,value
2022-08-23T00:00:13.056Z,96989.72
2022-08-23T00:02:43.779Z,96998.72
2022-08-23T00:05:12.582Z,96998.84
2022-08-23T00:07:41.744Z,96996.34
2022-08-23T00:10:11.705Z,96997.50
2022-08-23T00:12:40.831Z,97008.03
2022-08-23T00:15:11.400Z,97001.75
2022-08-23T00:17:42.248Z,97006.38
2022-08-23T00:20:14.226Z,97008.28
2022-08-23T00:22:43.197Z,97010.09
2022-08-23T00:25:13.876Z,97011.66
2022-08-23T00:27:42.510Z,97009.69
2022-08-23T00:30:13.494Z,97017.97
2022-08-23T00:32:43.824Z,97014.94
2022-08-23T00:35:26.430Z,97018.59
2022-08-23T00:38:30.412Z,97023.00
2022-08-23T00:40:47.389Z,97013.59
2022-08-23T00:43:45.520Z,97023.66
2022-08-23T00:46:38.005Z,97022.47
2022-08-23T00:49:10.368Z,97026.69
2022-08-23T00:51:53.233Z,97021.38
2022-08-23T00:54:23.978Z,97023.72
2022-08-23T00:56:52.830Z,97016.78
2022-08-23T00:59:21.101Z,97015.94
2022-08-23T01:01:50.230Z,97015.84
2022-08-23T01:04:19.017Z,97019.53
2022-08-23T01:06:52.489Z,97029.47
2022-08-23T01:09:22.302Z,97023.84
2022-08-23T01:11:55.033Z,97035.47
2022-08-23T01:14:27.647Z,97038.66
2022-08-23T01:16:59.065Z,97039.75
2022-08-23T01:19:30.428Z,97039.41
2022-08-23T01:22:09.459Z,97036.34
2022-08-23T01:25:07.345Z,97034.47
2022-08-23T01:27:28.451Z,97034.78
2022-08-23T01:29:56.712Z,97036.75
2022-08-23T01:32:25.735Z,97036.97
2022-08-23T01:34:54.322Z,97032.38
2022-08-23T01:37:22.880Z,97036.13
2022-08-23T01:39:55.415Z,97044.50
2022-08-23T01:42:24.616Z,97039.75
2022-08-23T01:44:52.761Z,97042.09
2022-08-23T01:47:21.110Z,97030.00
2022-08-23T01:49:49.601Z,97031.00
2022-08-23T01:52:19.014Z,97037.72
2022-08-23T01:54:47.466Z,97035.69
2022-08-23T01:57:17.722Z,97036.22
2022-08-23T01:59:46.080Z,97034.13
2022-08-23T02:02:15.108Z,97033.28
2022-08-23T02:04:43.590Z,97034.72
2022-08-23T02:07:11.931Z,97031.25
2022-08-23T02:09:40.246Z,97035.25
2022-08-23T02:12:08.860Z,97038.91
2022-08-23T02:14:42.228Z,97039.47
2022-08-23T02:17:18.669Z,97044.28
2022-08-23T02:19:47.112Z,97050.94
2022-08-23T02:22:15.369Z,97059.41
2022-08-23T02:24:45.439Z,97050.97
2022-08-23T02:27:15.428Z,97063.06
2022-08-23T02:29:47.334Z,97072.00
2022-08-23T02:32:17.913Z,97072.91
2022-08-23T02:34:51.301Z,97077.81
2022-08-23T02:37:35.226Z,97080.91
2022-08-23T02:40:05.049Z,97074.53
2022-08-23T02:42:33.880Z,97080.34
2022-08-23T02:45:04.827Z,97080.91
2022-08-23T02:47:36.976Z,97080.97
2022-08-23T02:50:16.141Z,97091.25
2022-08-23T02:52:45.465Z,97086.63
2022-08-23T02:55:13.793Z,97090.47
2022-08-23T02:57:42.549Z,97088.28
2022-08-23T03:00:15.773Z,97086.16
2022-08-23T03:02:44.334Z,97086.59
2022-08-23T03:05:13.637Z,97095.38
2022-08-23T03:07:42.031Z,97095.56
2022-08-23T03:10:12.084Z,97095.66
2022-08-23T03:12:46.592Z,97100.69
2022-08-23T03:15:16.716Z,97095.72
2022-08-23T03:17:45.284Z,97091.03
2022-08-23T03:20:13.997Z,97085.66
2022-08-23T03:22:48.331Z,97087.00
2022-08-23T03:25:23.026Z,97096.16
2022-08-23T03:28:04.774Z,97088.72
2022-08-23T03:30:35.875Z,97093.91
2022-08-23T03:33:06.136Z,97087.38
2022-08-23T03:35:34.381Z,97097.16
2022-08-23T03:38:04.093Z,97099.53
2022-08-23T03:40:32.373Z,97085.03
2022-08-23T03:43:02.452Z,97092.16
2022-08-23T03:45:31.897Z,97104.88
2022-08-23T03:48:02.095Z,97105.00
2022-08-23T03:50:33.199Z,97104.50
2022-08-23T03:53:01.597Z,97096.88
2022-08-23T03:55:29.861Z,97111.06
2022-08-23T03:57:58.850Z,97114.09
2022-08-23T04:00:27.360Z,97119.50
2022-08-23T04:02:56.800Z,97115.19
2022-08-23T04:05:28.490Z,97122.38
2022-08-23T04:08:09.356Z,97115.59
2022-08-23T04:10:39.414Z,97116.91
2022-08-23T04:13:09.414Z,97115.59
2022-08-23T04:15:37.835Z,97125.34
2022-08-23T04:18:07.489Z,97127.41
2022-08-23T04:20:39.274Z,97117.44
2022-08-23T04:23:07.636Z,97120.19
2022-08-23T04:25:46.702Z,97120.63
2022-08-23T04:28:15.637Z,97118.38
2022-08-23T04:30:46.968Z,97125.50
2022-08-23T04:33:18.038Z,97123.25
2022-08-23T04:35:49.191Z,97117.91
2022-08-23T04:38:25.015Z,97129.13
2022-08-23T04:41:15.155Z,97128.03
2022-08-23T04:43:46.004Z,97134.81
2022-08-23T04:46:16.556Z,97126.34
2022-08-23T04:48:48.015Z,97135.16
2022-08-23T04:51:19.686Z,97143.09
2022-08-23T04:53:47.961Z,97142.47
2022-08-23T04:56:34.707Z,97153.75
2022-08-23T04:59:03.522Z,97157.09
2022-08-23T05:01:32.851Z,97160.09
2022-08-23T05:04:01.678Z,97158.63
2022-08-23T05:06:32.382Z,97156.47
2022-08-23T05:09:01.769Z,97167.69
2022-08-23T05:11:30.906Z,97158.00
2022-08-23T05:13:59.793Z,97163.22
2022-08-23T05:16:28.666Z,97161.53
2022-08-23T05:19:08.698Z,97174.94
2022-08-23T05:21:44.823Z,97180.03
2022-08-23T05:24:14.010Z,97187.75
2022-08-23T05:26:44.537Z,97180.91
2022-08-23T05:29:13.158Z,97187.50
2022-08-23T05:31:49.968Z,97196.31
2022-08-23T05:34:22.370Z,97197.72
2022-08-23T05:36:58.650Z,97191.56
2022-08-23T05:39:37.028Z,97187.13
2022-08-23T05:42:11.986Z,97206.38
2022-08-23T05:44:40.537Z,97199.91
2022-08-23T05:47:13.062Z,97208.59
2022-08-23T05:49:54.517Z,97208.31
2022-08-23T05:52:26.351Z,97205.81
2022-08-23T05:54:54.669Z,97205.72
2022-08-23T05:57:55.009Z,97207.91
2022-08-23T06:00:25.524Z,97206.53
2022-08-23T06:03:06.865Z,97210.00
2022-08-23T06:05:35.326Z,97209.31
2022-08-23T06:08:05.326Z,97198.19
2022-08-23T06:10:34.269Z,97206.75
2022-08-23T06:13:07.572Z,97201.31
2022-08-23T06:15:36.014Z,97201.19
2022-08-23T06:18:05.430Z,97202.13
2022-08-23T06:20:34.272Z,97204.81
2022-08-23T06:23:09.561Z,97204.91
2022-08-23T06:25:41.549Z,97205.38
2022-08-23T06:28:13.514Z,97203.84
2022-08-23T06:30:43.981Z,97212.72
2022-08-23T06:33:26.953Z,97203.66
2022-08-23T06:36:07.278Z,97218.34
2022-08-23T06:38:55.497Z,97213.25
2022-08-23T06:41:43.858Z,97216.03
2022-08-23T06:44:28.863Z,97211.41
2022-08-23T06:47:02.948Z,97215.09
2022-08-23T06:49:31.547Z,97221.00
2022-08-23T06:52:01.623Z,97216.81
2022-08-23T06:55:02.392Z,97217.81
2022-08-23T06:57:42.648Z,97223.47
2022-08-23T07:00:41.670Z,97222.38
2022-08-23T07:06:18.090Z,97236.81
2022-08-23T07:08:46.767Z,97243.03
2022-08-23T07:11:16.686Z,97238.28
2022-08-23T07:13:45.002Z,97245.47
2022-08-23T07:16:13.541Z,97241.25
2022-08-23T07:18:41.879Z,97245.69
2022-08-23T07:21:10.139Z,97242.91
2022-08-23T07:23:43.789Z,97240.16
2022-08-23T07:26:17.714Z,97242.19
2022-08-23T07:28:46.685Z,97234.31
2022-08-23T07:31:18.942Z,97244.34
2022-08-23T07:33:48.358Z,97244.47
2022-08-23T07:36:23.277Z,97242.38
2022-08-23T07:38:52.351Z,97246.88
2022-08-23T07:41:25.207Z,97236.78
2022-08-23T07:43:55.179Z,97241.47
2022-08-23T07:46:23.522Z,97247.88
2022-08-23T07:48:54.988Z,97256.94
2022-08-23T07:51:46.558Z,97236.13
2022-08-23T07:54:16.542Z,97248.88
2022-08-23T07:56:52.589Z,97242.91
2022-08-23T07:59:39.756Z,97252.91
2022-08-23T08:02:20.041Z,97239.84
2022-08-23T08:04:48.806Z,97240.44
2022-08-23T08:07:20.480Z,97241.81
2022-08-23T08:09:56.764Z,97238.13
2022-08-23T08:12:27.576Z,97243.16
2022-08-23T08:14:58.078Z,97237.81
2022-08-23T08:17:33.172Z,97236.75
2022-08-23T08:20:26.908Z,97234.69
2022-08-23T08:23:21.471Z,97235.66
2022-08-23T08:26:09.565Z,97237.53
2022-08-23T08:28:40.371Z,97235.44
2022-08-23T08:31:09.455Z,97243.41
2022-08-23T08:33:38.145Z,97245.69
2022-08-23T08:36:07.827Z,97249.13
2022-08-23T08:38:48.012Z,97255.91
2022-08-23T08:41:21.296Z,97249.97
2022-08-23T08:43:59.027Z,97250.38
2022-08-23T08:46:35.308Z,97240.78
2022-08-23T08:49:05.445Z,97246.78
2022-08-23T08:51:40.459Z,97251.34
2022-08-23T08:54:11.364Z,97254.34
2022-08-23T08:56:49.763Z,97254.84
2022-08-23T08:59:26.394Z,97258.56
2022-08-23T09:01:55.514Z,97277.50
2022-08-23T09:04:31.593Z,97278.00
2022-08-23T09:07:11.570Z,97271.97
2022-08-23T09:10:01.198Z,97273.94
2022-08-23T09:12:35.744Z,97286.56
2022-08-23T09:15:15.871Z,97285.50
2022-08-23T09:17:50.617Z,97288.03
2022-08-23T09:20:20.868Z,97282.06
2022-08-23T09:22:55.006Z,97277.88
2022-08-23T09:25:29.466Z,97282.88
2022-08-23T09:28:05.147Z,97281.97
2022-08-23T09:30:53.819Z,97283.41
2022-08-23T09:33:26.254Z,97279.34
2022-08-23T09:36:14.008Z,97280.88
2022-08-23T09:38:51.792Z,97275.34
2022-08-23T09:41:25.211Z,97279.25
2022-08-23T09:43:56.729Z,97280.84
2022-08-23T09:46:31.147Z,97286.88
2022-08-23T09:49:01.570Z,97281.09
2022-08-23T09:51:37.745Z,97284.91
2022-08-23T09:54:14.361Z,97282.97
2022-08-23T09:56:51.372Z,97282.13
2022-08-23T09:59:33.712Z,97292.03
2022-08-23T10:02:18.791Z,97294.16
2022-08-23T10:04:58.458Z,97297.16
2022-08-23T10:07:35.971Z,97309.63
2022-08-23T10:10:20.399Z,97304.06
2022-08-23T10:12:48.926Z,97312.31
2022-08-23T10:15:18.475Z,97317.56
2022-08-23T10:17:53.949Z,97315.91
2022-08-23T10:20:38.013Z,97321.47
2022-08-23T10:23:17.334Z,97319.94
2022-08-23T10:25:56.190Z,97319.00
2022-08-23T10:28:51.376Z,97323.94
2022-08-23T10:31:33.799Z,97320.38
2022-08-23T10:34:18.117Z,97331.59
2022-08-23T10:36:52.881Z,97331.66
2022-08-23T10:39:26.307Z,97332.28
2022-08-23T10:42:02.392Z,97335.88
2022-08-23T10:44:36.342Z,97336.94
2022-08-23T10:47:14.087Z,97342.63
2022-08-23T10:49:44.588Z,97342.63
2022-08-23T10:52:19.333Z,97340.88
2022-08-23T10:55:00.791Z,97333.81
2022-08-23T10:57:34.586Z,97347.31
2022-08-23T11:00:07.516Z,97340.56
2022-08-23T11:02:43.668Z,97365.28
2022-08-23T11:05:25.892Z,97351.53
2022-08-23T11:08:01.204Z,97361.00
2022-08-23T11:10:56.857Z,97355.91
2022-08-23T11:13:35.076Z,97363.63
2022-08-23T11:16:08.647Z,97376.78
2022-08-23T11:18:44.432Z,97368.63
2022-08-23T11:21:44.793Z,97369.06
2022-08-23T11:24:51.166Z,97367.47
2022-08-23T11:27:39.391Z,97373.81
2022-08-23T11:30:49.857Z,97362.25
2022-08-23T11:33:27.609Z,97368.63
2022-08-23T11:36:16.763Z,97371.09
2022-08-23T11:39:07.968Z,97368.91
2022-08-23T11:41:37.560Z,97379.50
2022-08-23T11:44:24.117Z,97371.69
2022-08-23T11:47:00.447Z,97370.38
2022-08-23T11:49:58.709Z,97375.41
2022-08-23T11:52:36.357Z,97375.50
2022-08-23T11:55:25.360Z,97370.84
2022-08-23T11:58:14.005Z,97370.97
2022-08-23T12:01:07.667Z,97372.03
2022-08-23T12:03:55.955Z,97375.31
2022-08-23T12:06:40.598Z,97371.22
2022-08-23T12:09:14.190Z,97384.63
2022-08-23T12:12:12.507Z,97373.72
2022-08-23T12:14:51.697Z,97376.06
2022-08-23T12:17:54.147Z,97374.78
2022-08-23T12:20:29.993Z,97372.28
2022-08-23T12:23:03.841Z,97372.53
2022-08-23T12:25:33.743Z,97377.75
2022-08-23T12:28:08.964Z,97373.59
2022-08-23T12:30:44.231Z,97377.84
2022-08-23T12:33:26.613Z,97374.28
2022-08-23T12:36:02.063Z,97365.34
2022-08-23T12:38:37.725Z,97365.88
2022-08-23T12:41:18.317Z,97366.13
2022-08-23T12:44:03.203Z,97365.59
2022-08-23T12:46:35.676Z,97374.75
2022-08-23T12:49:05.603Z,97367.66
2022-08-23T12:51:33.848Z,97361.41
2022-08-23T12:54:14.082Z,97360.31
2022-08-23T12:56:47.151Z,97363.28
2022-08-23T12:59:32.382Z,97362.00
2022-08-23T13:02:01.599Z,97359.25
2022-08-23T13:04:30.341Z,97361.25
2022-08-23T13:07:00.480Z,97355.03
2022-08-23T13:09:31.461Z,97364.69
2022-08-23T13:11:59.945Z,97364.88
2022-08-23T13:14:37.254Z,97356.41
2022-08-23T13:17:23.924Z,97353.38
2022-08-23T13:19:53.575Z,97350.72
2022-08-23T13:22:24.592Z,97349.53
2022-08-23T13:27:57.368Z,97360.66
2022-08-23T13:30:29.750Z,97338.13
2022-08-23T13:33:19.459Z,97341.25
2022-08-23T13:35:49.151Z,97346.34
2022-08-23T13:38:25.330Z,97336.66
2022-08-23T13:40:58.159Z,97342.34
2022-08-23T13:43:29.555Z,97338.44
2022-08-23T13:46:01.461Z,97343.38
2022-08-23T13:48:32.055Z,97336.81
2022-08-23T13:51:18.888Z,97338.22
2022-08-23T13:53:47.063Z,97340.59
2022-08-23T13:56:15.889Z,97330.47
2022-08-23T13:58:44.383Z,97326.28
2022-08-23T14:01:18.595Z,97321.63
2022-08-23T14:03:47.492Z,97326.59
2022-08-23T14:06:15.955Z,97335.97
2022-08-23T14:08:44.201Z,97329.34
2022-08-23T14:11:14.434Z,97341.25
2022-08-23T14:13:44.972Z,97333.16
2022-08-23T14:16:33.996Z,97332.56
2022-08-23T14:19:55.154Z,97335.16
2022-08-23T14:21:52.161Z,97335.84
2022-08-23T14:24:22.388Z,97343.16
2022-08-23T14:26:52.441Z,97339.47
2022-08-23T14:29:22.433Z,97345.91
2022-08-23T14:31:53.149Z,97338.31
2022-08-23T14:34:22.078Z,97343.59
2022-08-23T14:39:39.841Z,97346.97
2022-08-23T14:42:08.467Z,97355.00
2022-08-23T14:44:36.740Z,97353.16
2022-08-23T14:47:07.236Z,97351.38
2022-08-23T14:49:36.134Z,97360.47
2022-08-23T14:52:04.927Z,97354.34
2022-08-23T14:54:34.038Z,97354.75
2022-08-23T14:57:02.238Z,97364.88
2022-08-23T14:59:30.486Z,97358.44
2022-08-23T15:01:59.137Z,97363.97
2022-08-23T15:04:34.572Z,97367.66
2022-08-23T15:07:17.752Z,97359.19
2022-08-23T15:09:46.860Z,97363.09
2022-08-23T15:15:03.654Z,97367.91
2022-08-23T15:17:31.999Z,97364.72
2022-08-23T15:20:01.641Z,97366.75
2022-08-23T15:22:29.990Z,97370.84
2022-08-23T15:24:58.764Z,97370.13
2022-08-23T15:27:27.021Z,97365.44
2022-08-23T15:29:55.194Z,97379.22
2022-08-23T15:32:23.439Z,97380.94
2022-08-23T15:34:52.132Z,97382.50
2022-08-23T15:37:22.740Z,97384.41
2022-08-23T15:39:51.585Z,97383.03
2022-08-23T15:42:20.413Z,97388.75
2022-08-23T15:44:49.226Z,97382.25
2022-08-23T15:47:21.417Z,97388.56
2022-08-23T15:49:49.937Z,97383.66
2022-08-23T15:52:18.442Z,97383.66
2022-08-23T15:54:48.256Z,97397.03
2022-08-23T15:57:18.128Z,97384.19
2022-08-23T15:59:46.493Z,97383.66
2022-08-23T16:02:14.865Z,97385.47
2022-08-23T16:04:43.283Z,97390.16
2022-08-23T16:07:15.935Z,97386.75
2022-08-23T16:09:44.769Z,97384.31
2022-08-23T16:12:14.342Z,97389.50
2022-08-23T16:14:42.686Z,97383.06
2022-08-23T16:17:11.007Z,97384.22
2022-08-23T16:19:39.223Z,97384.53
2022-08-23T16:22:07.473Z,97389.09
2022-08-23T16:24:35.683Z,97389.16
2022-08-23T16:27:05.491Z,97385.47
2022-08-23T16:29:36.246Z,97384.31
2022-08-23T16:32:05.233Z,97385.25
2022-08-23T16:34:33.909Z,97378.28
2022-08-23T16:37:04.326Z,97383.25
2022-08-23T16:39:34.436Z,97381.34
2022-08-23T16:42:04.688Z,97379.97
2022-08-23T16:44:34.918Z,97386.00
2022-08-23T16:47:03.183Z,97377.56
2022-08-23T16:49:33.601Z,97386.75
2022-08-23T16:52:02.288Z,97391.84
2022-08-23T16:54:30.594Z,97389.59
2022-08-23T16:56:58.835Z,97394.34
2022-08-23T16:59:27.094Z,97398.84
2022-08-23T17:01:58.630Z,97399.56
2022-08-23T17:04:30.755Z,97397.22
2022-08-23T17:06:59.671Z,97400.13
2022-08-23T17:09:29.611Z,97395.75
2022-08-23T17:11:59.316Z,97394.69
2022-08-23T17:14:28.357Z,97398.75
2022-08-23T17:16:58.038Z,97405.66
2022-08-23T17:19:26.281Z,97402.97
2022-08-23T17:21:54.589Z,97415.41
2022-08-23T17:24:24.478Z,97405.69
2022-08-23T17:26:52.755Z,97413.22
2022-08-23T17:29:21.071Z,97419.22
2022-08-23T17:31:49.450Z,97422.88
2022-08-23T17:34:19.220Z,97430.31
2022-08-23T17:36:48.995Z,97427.97
2022-08-23T17:39:20.717Z,97428.59
2022-08-23T17:41:50.684Z,97438.66
2022-08-23T17:44:20.356Z,97434.31
2022-08-23T17:46:49.207Z,97435.56
2022-08-23T17:49:19.455Z,97437.53
2022-08-23T17:51:47.921Z,97435.81
2022-08-23T17:54:16.746Z,97443.63
2022-08-23T17:56:48.486Z,97440.78
2022-08-23T17:59:19.576Z,97448.56
2022-08-23T18:01:48.007Z,97443.78
2022-08-23T18:04:16.293Z,97457.72
2022-08-23T18:06:45.963Z,97444.94
2022-08-23T18:09:14.589Z,97456.16
2022-08-23T18:11:43.063Z,97458.25
2022-08-23T18:14:12.538Z,97475.22
2022-08-23T18:16:41.313Z,97471.28
2022-08-23T18:19:13.123Z,97469.06
2022-08-23T18:21:43.864Z,97471.16
2022-08-23T18:24:14.600Z,97467.25
2022-08-23T18:27:01.204Z,97468.19
2022-08-23T18:29:30.600Z,97480.06
2022-08-23T18:31:59.170Z,97487.38
2022-08-23T18:34:28.178Z,97482.03
2022-08-23T18:36:56.755Z,97496.47
2022-08-23T18:39:31.870Z,97496.22
2022-08-23T18:42:01.446Z,97500.34
2022-08-23T18:44:30.117Z,97503.91
2022-08-23T18:46:59.226Z,97501.09
2022-08-23T18:49:27.565Z,97504.34
2022-08-23T18:51:56.525Z,97504.25
2022-08-23T18:54:28.092Z,97511.22
2022-08-23T18:56:59.184Z,97506.94
2022-08-23T18:59:29.234Z,97509.63
2022-08-23T19:01:59.039Z,97513.38
2022-08-23T19:04:28.036Z,97513.91
2022-08-23T19:06:56.973Z,97507.50
2022-08-23T19:09:26.952Z,97514.84
2022-08-23T19:11:57.428Z,97520.03
2022-08-23T19:14:26.291Z,97518.25
2022-08-23T19:16:55.825Z,97515.03
2022-08-23T19:19:25.283Z,97519.22
2022-08-23T19:21:54.271Z,97514.22
2022-08-23T19:24:26.925Z,97519.69
2022-08-23T19:26:57.108Z,97521.50
2022-08-23T19:29:26.501Z,97530.09
2022-08-23T19:31:55.542Z,97537.72
2022-08-23T19:34:24.213Z,97534.53
2022-08-23T19:37:00.866Z,97547.09
2022-08-23T19:39:31.014Z,97540.09
2022-08-23T19:42:01.010Z,97541.88
2022-08-23T19:44:33.012Z,97547.25
2022-08-23T19:47:01.968Z,97548.03
2022-08-23T19:49:31.540Z,97551.97
2022-08-23T19:52:00.124Z,97548.03
2022-08-23T19:54:28.835Z,97542.38
2022-08-23T19:56:59.230Z,97545.59
2022-08-23T19:59:31.701Z,97546.63
2022-08-23T20:02:00.894Z,97554.28
2022-08-23T20:04:31.306Z,97548.31
2022-08-23T20:07:01.377Z,97563.47
2022-08-23T20:09:31.062Z,97562.94
2022-08-23T20:12:00.436Z,97559.53
2022-08-23T20:14:33.476Z,97560.88
2022-08-23T20:17:04.862Z,97565.84
2022-08-23T20:19:33.410Z,97570.00
2022-08-23T20:22:16.298Z,97559.63
2022-08-23T20:24:51.536Z,97568.94
2022-08-23T20:27:27.784Z,97571.66
2022-08-23T20:30:01.824Z,97567.25
2022-08-23T20:32:31.472Z,97573.13
2022-08-23T20:35:00.730Z,97574.38
2022-08-23T20:37:30.040Z,97576.03
2022-08-23T20:39:58.502Z,97573.78
2022-08-23T20:42:27.295Z,97570.94
2022-08-23T20:44:55.825Z,97575.09
2022-08-23T20:47:25.497Z,97570.53
2022-08-23T20:49:53.812Z,97567.19
2022-08-23T20:52:22.073Z,97561.63
2022-08-23T20:54:50.365Z,97565.00
2022-08-23T20:57:18.811Z,97562.88
2022-08-23T20:59:47.082Z,97556.03
2022-08-23T21:02:15.496Z,97559.47
2022-08-23T21:04:45.779Z,97557.22
2022-08-23T21:07:16.106Z,97561.75
2022-08-23T21:09:44.849Z,97560.03
2022-08-23T21:12:13.644Z,97561.72
2022-08-23T21:14:41.834Z,97564.53
2022-08-23T21:17:10.084Z,97570.44
2022-08-23T21:19:38.919Z,97564.50
2022-08-23T21:22:08.654Z,97567.13
2022-08-23T21:24:38.193Z,97564.66
2022-08-23T21:27:09.524Z,97565.31
2022-08-23T21:29:38.687Z,97556.81
2022-08-23T21:32:07.653Z,97564.94
2022-08-23T21:34:35.857Z,97571.38
2022-08-23T21:37:04.053Z,97567.22
2022-08-23T21:39:33.618Z,97573.34
2022-08-23T21:42:01.849Z,97559.38
2022-08-23T21:44:42.421Z,97563.13
2022-08-23T21:47:10.710Z,97564.88
2022-08-23T21:49:39.089Z,97568.75
2022-08-23T21:52:08.161Z,97567.88
2022-08-23T21:54:42.807Z,97563.63
2022-08-23T21:57:11.735Z,97556.50
2022-08-23T21:59:39.953Z,97559.19
2022-08-23T22:02:08.231Z,97555.88
2022-08-23T22:04:36.578Z,97559.88
2022-08-23T22:07:04.892Z,97552.16
2022-08-23T22:09:33.388Z,97560.97
2022-08-23T22:12:03.126Z,97547.03
2022-08-23T22:14:32.056Z,97556.53
2022-08-23T22:17:00.637Z,97545.75
2022-08-23T22:19:29.186Z,97548.53
2022-08-23T22:21:57.574Z,97551.53
2022-08-23T22:24:26.489Z,97551.34
2022-08-23T22:26:55.240Z,97547.09
2022-08-23T22:29:25.231Z,97541.25
2022-08-23T22:31:54.146Z,97547.25
2022-08-23T22:34:22.418Z,97540.38
2022-08-23T22:36:52.642Z,97543.84
2022-08-23T22:39:22.026Z,97537.97
2022-08-23T22:41:50.852Z,97536.56
2022-08-23T22:44:19.148Z,97530.19
2022-08-23T22:46:48.789Z,97526.81
2022-08-23T22:49:17.281Z,97524.47
2022-08-23T22:54:23.122Z,97519.88
2022-08-23T22:56:52.286Z,97525.84
2022-08-23T22:59:25.851Z,97520.25
2022-08-23T23:01:58.623Z,97520.59
2022-08-23T23:04:27.535Z,97519.72
2022-08-23T23:06:56.607Z,97522.25
2022-08-23T23:09:25.198Z,97518.84
2022-08-23T23:11:54.480Z,97513.72
2022-08-23T23:14:23.175Z,97509.25
2022-08-23T23:16:53.271Z,97513.44
2022-08-23T23:19:40.321Z,97504.94
2022-08-23T23:22:09.901Z,97501.56
2022-08-23T23:24:39.775Z,97508.25
2022-08-23T23:27:08.757Z,97505.00
2022-08-23T23:29:38.518Z,97507.31
2022-08-23T23:32:07.204Z,97509.53
2022-08-23T23:34:38.060Z,97511.56
2022-08-23T23:37:06.650Z,97516.41
2022-08-23T23:39:34.904Z,97512.06
2022-08-23T23:42:03.145Z,97511.81
2022-08-23T23:44:32.110Z,97514.19
2022-08-23T23:47:01.393Z,97506.81
2022-08-23T23:49:32.496Z,97504.44
2022-08-23T23:52:04.880Z,97510.00
2022-08-23T23:54:35.567Z,97517.25
2022-08-23T23:57:04.051Z,97508.72
2022-08-23T23:59:32.597Z,97523.06
